Impacts TAF Board
For situational awareness. Not to be used for flight planning purposes.
IDs:

KPDX - Portland Intl Arpt, OR, US

Issued at 2042 UTC 21 Sep 2021
Updated at 2253 UTC 21 Sep 2021
Potential Impact None Slight Moderate High
Time2153Z 21/23Z 22/00Z 22/01Z 22/02Z 22/03Z 22/04Z 22/05Z 22/06Z 22/07Z 22/08Z 22/09Z 22/10Z 22/11Z>>
Type OBS PRVL PRVL PRVL PRVL PRVL PRVL PRVL PRVL PRVL PRVL PRVL PRVL PRVL
VIS 10 >6 >6 >6 >6 >6 >6 >6 >6 >6 >6 >6 >6 >6
CIG -- -- -- -- -- -- -- -- -- -- -- -- -- --
Cover SCT SKC SKC SKC SKC SKC SKC SKC SKC SKC SKC SCT SCT SCT
FltCat VFR VFR VFR VFR VFR VFR VFR VFR VFR VFR VFR VFR VFR VFR
WX -- -- -- -- -- -- -- -- -- -- -- -- -- --
WDir VRB 300 300 300 300 300 300 300 300 300 300 VRB VRB VRB
WSpd 0 7 7 7 7 7 7 7 7 7 7 4 4 4
WGst -- -- -- -- -- -- -- -- -- -- -- -- -- --
Raw TAF
KPDX 212042Z 2121/2218 30007KT P6SM SKC
  FM220900 VRB04KT P6SM SCT250
  FM221400 33005KT P6SM -SHRA SCT025 OVC050


Raw METAR
KPDX 212153Z 00000KT 10SM SCT250 28/09 A3003 RMK AO2 SLP166 T02780094
KPDX 212053Z 32005KT 10SM BKN250 26/10 A3005 RMK AO2 SLP177 T02560100 56026
KPDX 211953Z 32004KT 10SM FEW200 BKN250 24/10 A3008 RMK AO2 SLP185 T02390100

METAR Board
Radar Display
Forecast Discussion
For situational awareness. Not to be used for flight planning purposes.